This is the latest recevied weather packets stored in our database for station/object 9M4GEK-3. If no packets are shown the sender has not sent any weather packets the latest 10 day(s).
| Time | Temp. | Humidity | Pressure | Rain* | Wind** | Luminosity | Snow |
|---|---|---|---|---|---|---|---|
| 1778135430 | 43.33° C | 32% | 1005.1 hPa | - | - | - | - |
| 1778134530 | 42.22° C | 33% | 1005.3 hPa | - | - | - | - |
| 1778133629 | 42.22° C | 33% | 1005.6 hPa | - | - | - | - |
| 1778132729 | 43.89° C | 32% | 1006 hPa | - | - | - | - |
| 1778131829 | 41.67° C | 34% | 1006.2 hPa | - | - | - | - |
| 1778130928 | 40° C | 37% | 1006.5 hPa | - | - | - | - |
| 1778130029 | 41.11° C | 35% | 1006.8 hPa | - | - | - | - |
| 1778129561 | 41.67° C | 35% | 1007.1 hPa | - | - | - | - |
| 1778129128 | 41.67° C | 35% | 1007.1 hPa | - | - | - | - |
| 1778128303 | 41.67° C | 35% | 1007.3 hPa | - | - | - | - |
| 1778128228 | 41.67° C | 35% | 1007.3 hPa | - | - | - | - |
| 1778127327 | 42.22° C | 35% | 1007.6 hPa | - | - | - | - |
| 1778126427 | 41.11° C | 36% | 1007.6 hPa | - | - | - | - |
| 1778125527 | 42.78° C | 34% | 1007.8 hPa | - | - | - | - |
| 1778124627 | 41.11° C | 37% | 1007.7 hPa | - | - | - | - |
| 1778123727 | 42.22° C | 37% | 1007.9 hPa | - | - | - | - |
| 1778122826 | 40° C | 39% | 1008 hPa | - | - | - | - |
| 1778121927 | 38.33° C | 42% | 1007.9 hPa | - | - | - | - |
| 1778121026 | 37.22° C | 44% | 1007.9 hPa | - | - | - | - |
| 1778120126 | 38.33° C | 43% | 1007.9 hPa | - | - | - | - |
| 1778119226 | 38.33° C | 45% | 1008 hPa | - | - | - | - |
| 1778118326 | 37.78° C | 47% | 1008 hPa | - | - | - | - |
| 1778117511 | 37.22° C | 50% | 1007.7 hPa | - | - | - | - |
| 1778117425 | 37.22° C | 50% | 1007.7 hPa | - | - | - | - |
| 1778116635 | 36.11° C | 54% | 1007.5 hPa | - | - | - | - |
* Rain since midnight (hover to see other rain measurements)
** Current wind speed in m/s (hover to see current wind gust speed)